createdAt,value
2019-01-04T00:01:48.332Z,0.60
2019-01-04T00:04:15.052Z,0.70
2019-01-04T00:06:42.518Z,0.50
2019-01-04T00:09:09.269Z,0.50
2019-01-04T00:11:37.599Z,0.50
2019-01-04T00:14:05.057Z,0.40
2019-01-04T00:16:31.614Z,0.60
2019-01-04T00:18:58.242Z,0.50
2019-01-04T00:21:24.801Z,0.60
2019-01-04T00:23:51.525Z,0.50
2019-01-04T00:26:18.204Z,0.40
2019-01-04T00:28:44.934Z,0.30
2019-01-04T00:31:11.574Z,0.40
2019-01-04T00:33:38.197Z,0.40
2019-01-04T00:36:04.959Z,0.30
2019-01-04T00:38:31.572Z,0.40
2019-01-04T00:40:58.122Z,0.50
2019-01-04T00:43:24.650Z,0.50
2019-01-04T00:45:51.320Z,0.50
2019-01-04T00:48:17.950Z,0.60
2019-01-04T00:50:44.601Z,0.60
2019-01-04T00:53:11.213Z,0.60
2019-01-04T00:55:47.857Z,0.60
2019-01-04T00:58:53.474Z,0.60
2019-01-04T01:01:36.032Z,0.50
2019-01-04T01:04:09.222Z,0.50
2019-01-04T01:06:45.833Z,0.40
2019-01-04T01:09:33.115Z,0.30
2019-01-04T01:12:37.432Z,0.30
2019-01-04T01:15:27.834Z,0.30
2019-01-04T01:18:04.028Z,0.20
2019-01-04T01:21:09.588Z,0.20
2019-01-04T01:23:59.589Z,0.30
2019-01-04T01:26:59.203Z,0.30
2019-01-04T01:30:02.012Z,0.40
2019-01-04T01:32:47.649Z,0.30
2019-01-04T01:35:34.796Z,0.30
2019-01-04T01:38:05.148Z,0.40
2019-01-04T01:41:07.408Z,0.40
2019-01-04T01:44:05.093Z,0.40
2019-01-04T01:46:38.480Z,0.50
2019-01-04T01:49:24.205Z,0.50
2019-01-04T01:51:57.487Z,0.60
2019-01-04T01:54:24.102Z,0.70
2019-01-04T01:56:51.726Z,0.70
2019-01-04T01:59:18.366Z,0.60
2019-01-04T02:01:44.917Z,0.70
2019-01-04T02:04:11.438Z,0.80
2019-01-04T02:06:37.985Z,0.70
2019-01-04T02:09:07.442Z,0.70
2019-01-04T02:11:34.012Z,0.80
2019-01-04T02:14:00.541Z,0.80
2019-01-04T02:16:27.105Z,0.80
2019-01-04T02:18:53.624Z,0.80
2019-01-04T02:21:20.158Z,0.80
2019-01-04T02:23:46.722Z,0.90
2019-01-04T02:26:13.341Z,1.00
2019-01-04T02:28:39.897Z,1.00
2019-01-04T02:31:06.626Z,0.90
2019-01-04T02:33:33.285Z,0.80
2019-01-04T02:36:00.008Z,0.80
2019-01-04T02:38:26.766Z,0.90
2019-01-04T02:40:53.296Z,0.80
2019-01-04T02:43:19.951Z,0.80
2019-01-04T02:45:46.466Z,0.80
2019-01-04T02:48:13.222Z,0.80
2019-01-04T02:50:39.981Z,0.70
2019-01-04T02:53:06.631Z,0.70
2019-01-04T02:55:33.229Z,0.80
2019-01-04T02:57:59.880Z,0.80
2019-01-04T03:00:26.503Z,0.80
2019-01-04T03:02:53.264Z,0.70
2019-01-04T03:05:19.885Z,0.80
2019-01-04T03:07:46.437Z,0.90
2019-01-04T03:10:13.088Z,0.90
2019-01-04T03:12:39.654Z,0.90
2019-01-04T03:15:06.177Z,0.90
2019-01-04T03:17:32.738Z,0.90
2019-01-04T03:19:59.378Z,0.90
2019-01-04T03:22:26.410Z,1.00
2019-01-04T03:24:53.038Z,1.00
2019-01-04T03:27:19.698Z,1.10
2019-01-04T03:29:46.336Z,1.00
2019-01-04T03:32:12.985Z,1.10
2019-01-04T03:34:39.696Z,1.20
2019-01-04T03:37:06.261Z,1.20
2019-01-04T03:39:32.924Z,1.30
2019-01-04T03:41:59.402Z,1.40
2019-01-04T03:44:25.958Z,1.50
2019-01-04T03:46:52.868Z,1.30
2019-01-04T03:49:20.343Z,1.30
2019-01-04T03:51:47.465Z,1.30
2019-01-04T03:54:14.138Z,1.40
2019-01-04T03:56:40.659Z,1.40
2019-01-04T03:59:07.208Z,1.30
2019-01-04T04:01:33.746Z,1.30
2019-01-04T04:04:00.417Z,1.20
2019-01-04T04:06:26.940Z,1.30
2019-01-04T04:08:53.693Z,1.30
2019-01-04T04:11:20.416Z,1.30
2019-01-04T04:13:47.577Z,1.20
2019-01-04T04:16:14.300Z,1.30
2019-01-04T04:18:40.954Z,1.30
2019-01-04T04:21:07.594Z,1.40
2019-01-04T04:23:34.749Z,1.40
2019-01-04T04:26:01.364Z,1.50
2019-01-04T04:28:28.026Z,1.50
2019-01-04T04:30:54.762Z,1.40
2019-01-04T04:33:21.520Z,1.40
2019-01-04T04:35:48.128Z,1.60
2019-01-04T04:38:14.681Z,1.60
2019-01-04T04:40:41.302Z,1.60
2019-01-04T04:43:07.890Z,1.70
2019-01-04T04:45:34.420Z,1.70
2019-01-04T04:48:00.984Z,1.60
2019-01-04T04:50:27.502Z,1.60
2019-01-04T04:52:54.062Z,1.60
2019-01-04T04:55:20.585Z,1.60
2019-01-04T04:57:47.413Z,1.60
2019-01-04T05:00:13.945Z,1.50
2019-01-04T05:02:40.668Z,1.50
2019-01-04T05:05:07.994Z,1.60
2019-01-04T05:07:34.731Z,1.70
2019-01-04T05:10:01.327Z,1.70
2019-01-04T05:12:27.847Z,1.80
2019-01-04T05:14:54.400Z,1.80
2019-01-04T05:17:20.917Z,1.90
2019-01-04T05:19:47.468Z,1.90
2019-01-04T05:22:13.998Z,1.90
2019-01-04T05:24:40.566Z,1.90
2019-01-04T05:27:07.075Z,2.00
2019-01-04T05:29:35.328Z,1.90
2019-01-04T05:32:02.053Z,2.00
2019-01-04T05:34:28.708Z,2.00
2019-01-04T05:36:55.232Z,2.00
2019-01-04T05:39:22.004Z,1.90
2019-01-04T05:41:48.627Z,1.90
2019-01-04T05:44:15.178Z,1.90
2019-01-04T05:46:42.724Z,2.00
2019-01-04T05:49:09.441Z,2.00
2019-01-04T05:51:36.063Z,2.00
2019-01-04T05:54:02.826Z,2.10
2019-01-04T05:56:29.553Z,2.10
2019-01-04T05:58:56.205Z,2.30
2019-01-04T06:01:22.826Z,2.30
2019-01-04T06:03:49.519Z,2.30
2019-01-04T06:06:16.020Z,2.30
2019-01-04T06:08:42.676Z,2.30
2019-01-04T06:11:09.204Z,2.30
2019-01-04T06:13:35.878Z,2.20
2019-01-04T06:16:02.612Z,2.30
2019-01-04T06:18:29.265Z,2.30
2019-01-04T06:20:56.013Z,2.40
2019-01-04T06:23:22.746Z,2.30
2019-01-04T06:25:49.391Z,2.40
2019-01-04T06:28:16.114Z,2.40
2019-01-04T06:30:43.505Z,2.30
2019-01-04T06:33:10.832Z,2.40
2019-01-04T06:35:37.592Z,2.40
2019-01-04T06:38:04.326Z,2.50
2019-01-04T06:40:31.072Z,2.40
2019-01-04T06:42:57.610Z,2.40
2019-01-04T06:45:24.169Z,2.40
2019-01-04T06:47:50.792Z,2.30
2019-01-04T06:50:17.447Z,2.40
2019-01-04T06:52:43.969Z,2.40
2019-01-04T06:55:20.360Z,2.30
2019-01-04T06:57:46.992Z,2.40
2019-01-04T07:00:13.843Z,2.40
2019-01-04T07:02:40.569Z,2.40
2019-01-04T07:05:07.320Z,2.50
2019-01-04T07:07:33.951Z,2.50
2019-01-04T07:10:05.719Z,2.60
2019-01-04T07:12:32.250Z,2.60
2019-01-04T07:14:58.903Z,2.60
2019-01-04T07:17:25.528Z,2.60
2019-01-04T07:19:53.773Z,2.60
2019-01-04T07:22:21.304Z,2.60
2019-01-04T07:24:48.352Z,2.60
2019-01-04T07:27:14.978Z,2.70
2019-01-04T07:29:42.128Z,2.60
2019-01-04T07:32:08.792Z,2.60
2019-01-04T07:34:35.404Z,2.60
2019-01-04T07:39:35.663Z,2.80
2019-01-04T07:42:03.144Z,2.90
2019-01-04T07:44:29.802Z,2.90
2019-01-04T07:46:56.305Z,3.00
2019-01-04T07:49:22.831Z,3.10
2019-01-04T07:51:49.479Z,3.20
2019-01-04T07:54:16.112Z,3.20
2019-01-04T07:56:42.657Z,3.10
2019-01-04T07:59:09.181Z,3.00
2019-01-04T08:01:35.744Z,3.10
2019-01-04T08:04:02.775Z,3.10
2019-01-04T08:06:29.437Z,3.20
2019-01-04T08:08:56.053Z,3.20
2019-01-04T08:11:22.706Z,3.20
2019-01-04T08:13:49.436Z,3.20
2019-01-04T08:16:16.285Z,3.30
2019-01-04T08:18:42.910Z,3.20
2019-01-04T08:21:10.069Z,3.20
2019-01-04T08:23:36.689Z,3.30
2019-01-04T08:26:04.071Z,3.20
2019-01-04T08:28:30.791Z,3.20
2019-01-04T08:30:57.477Z,3.30
2019-01-04T08:33:24.101Z,3.30
2019-01-04T08:35:50.669Z,3.30
2019-01-04T08:38:17.301Z,3.30
2019-01-04T08:40:44.120Z,3.30
2019-01-04T08:43:10.740Z,3.30
2019-01-04T08:45:37.461Z,3.30
2019-01-04T08:48:05.721Z,3.40
2019-01-04T08:50:32.351Z,3.40
2019-01-04T08:52:59.008Z,3.30
2019-01-04T08:55:25.527Z,3.40
2019-01-04T08:57:52.189Z,3.40
2019-01-04T09:00:18.918Z,3.40
2019-01-04T09:02:45.577Z,3.40
2019-01-04T09:05:12.302Z,3.40
2019-01-04T09:07:39.070Z,3.40
2019-01-04T09:10:08.107Z,3.50
2019-01-04T09:12:34.769Z,3.50
2019-01-04T09:15:01.396Z,3.60
2019-01-04T09:17:28.050Z,3.50
2019-01-04T09:19:54.753Z,3.50
2019-01-04T09:22:21.305Z,3.50
2019-01-04T09:24:47.859Z,3.50
2019-01-04T09:27:14.428Z,3.50
2019-01-04T09:29:40.947Z,3.60
2019-01-04T09:32:07.605Z,3.70
2019-01-04T09:34:34.132Z,3.60
2019-01-04T09:37:00.789Z,3.70
2019-01-04T09:39:29.225Z,3.70
2019-01-04T09:41:56.887Z,3.60
2019-01-04T09:44:23.531Z,3.60
2019-01-04T09:46:50.184Z,3.70
2019-01-04T09:49:16.608Z,3.70
2019-01-04T09:51:43.359Z,3.70
2019-01-04T09:54:09.980Z,3.90
2019-01-04T09:56:36.508Z,3.90
2019-01-04T09:59:03.153Z,3.80
2019-01-04T10:01:29.775Z,3.80
2019-01-04T10:03:56.319Z,3.70
2019-01-04T10:06:22.949Z,3.80
2019-01-04T10:08:49.497Z,3.80
2019-01-04T10:11:16.043Z,3.90
2019-01-04T10:13:42.665Z,3.90
2019-01-04T10:16:09.257Z,4.00
2019-01-04T10:18:35.774Z,3.90
2019-01-04T10:21:02.321Z,3.90
2019-01-04T10:23:28.901Z,3.90
2019-01-04T10:25:55.461Z,3.90
2019-01-04T10:28:22.391Z,3.80
2019-01-04T10:30:49.043Z,3.80
2019-01-04T10:33:15.673Z,3.90
2019-01-04T10:35:42.225Z,3.90
2019-01-04T10:38:08.750Z,3.90
2019-01-04T10:40:35.410Z,4.00
2019-01-04T10:43:02.028Z,4.00
2019-01-04T10:45:28.680Z,4.00
2019-01-04T10:47:55.205Z,4.00
2019-01-04T10:50:21.874Z,3.90
2019-01-04T10:52:48.398Z,3.90
2019-01-04T10:55:14.965Z,4.00
2019-01-04T10:57:41.492Z,3.80
2019-01-04T11:00:11.909Z,4.00
2019-01-04T11:02:39.725Z,3.90
2019-01-04T11:05:07.381Z,4.00
2019-01-04T11:07:33.993Z,4.00
2019-01-04T11:10:00.696Z,3.90
2019-01-04T11:12:27.211Z,3.90
2019-01-04T11:14:53.770Z,4.00
2019-01-04T11:17:20.304Z,3.90
2019-01-04T11:19:46.846Z,4.00
2019-01-04T11:22:46.293Z,4.00
2019-01-04T11:25:33.347Z,4.00
2019-01-04T11:28:03.576Z,3.90
2019-01-04T11:30:33.834Z,3.80
2019-01-04T11:33:00.562Z,3.80
2019-01-04T11:35:46.230Z,3.80
2019-01-04T11:38:19.253Z,3.70
2019-01-04T11:41:19.876Z,3.80
2019-01-04T11:43:52.793Z,4.00
2019-01-04T11:46:32.053Z,3.90
2019-01-04T11:49:05.169Z,4.00
2019-01-04T11:51:35.602Z,3.90
2019-01-04T11:54:04.361Z,3.90
2019-01-04T11:56:30.916Z,3.90
2019-01-04T11:58:57.436Z,4.00
2019-01-04T12:01:24.010Z,4.00
2019-01-04T12:03:55.848Z,4.00
2019-01-04T12:06:22.445Z,3.90
2019-01-04T12:08:49.070Z,3.80
2019-01-04T12:11:15.720Z,3.90
2019-01-04T12:13:42.352Z,3.90
2019-01-04T12:16:09.013Z,4.00
2019-01-04T12:18:35.638Z,4.10
2019-01-04T12:21:02.212Z,4.10
2019-01-04T12:23:28.745Z,4.10
2019-01-04T12:25:55.458Z,4.10
2019-01-04T12:28:22.121Z,4.10
2019-01-04T12:30:48.718Z,4.10
2019-01-04T12:33:15.410Z,4.10
2019-01-04T12:35:41.947Z,4.10
2019-01-04T12:38:08.608Z,4.10
2019-01-04T12:40:35.168Z,4.20
2019-01-04T12:43:01.900Z,4.20
2019-01-04T12:45:28.518Z,4.20
2019-01-04T12:47:55.050Z,4.30
2019-01-04T12:50:21.820Z,4.30
2019-01-04T12:52:48.536Z,4.30
2019-01-04T12:55:15.246Z,4.30
2019-01-04T12:57:41.809Z,4.40
2019-01-04T13:00:10.988Z,4.50
2019-01-04T13:02:39.337Z,4.50
2019-01-04T13:05:05.960Z,4.50
2019-01-04T13:07:32.586Z,4.60
2019-01-04T13:09:59.253Z,4.50
2019-01-04T13:12:25.930Z,4.50
2019-01-04T13:14:52.596Z,4.50
2019-01-04T13:17:19.360Z,4.50
2019-01-04T13:19:45.985Z,4.60
2019-01-04T13:22:12.669Z,4.60
2019-01-04T13:24:39.343Z,4.70
2019-01-04T13:27:05.900Z,4.70
2019-01-04T13:29:32.523Z,4.80
2019-01-04T13:31:59.112Z,4.80
2019-01-04T13:34:25.749Z,4.70
2019-01-04T13:36:52.317Z,4.80
2019-01-04T13:39:18.845Z,4.80
2019-01-04T13:41:45.434Z,4.80
2019-01-04T13:44:12.117Z,4.80
2019-01-04T13:46:39.084Z,4.80
2019-01-04T13:49:06.401Z,4.80
2019-01-04T13:51:33.077Z,4.90
2019-01-04T13:53:59.805Z,4.90
2019-01-04T13:56:26.789Z,4.80
2019-01-04T13:58:53.401Z,4.80
2019-01-04T14:01:20.000Z,5.00
2019-01-04T14:03:46.525Z,5.00
2019-01-04T14:06:13.275Z,5.00
2019-01-04T14:08:39.828Z,4.90
2019-01-04T14:11:06.518Z,5.00
2019-01-04T14:13:33.053Z,5.00
2019-01-04T14:15:59.682Z,5.00
2019-01-04T14:18:26.346Z,5.10
2019-01-04T14:20:54.497Z,5.00
2019-01-04T14:23:21.205Z,5.00
2019-01-04T14:25:47.772Z,5.10
2019-01-04T14:28:15.526Z,5.00
2019-01-04T14:30:42.156Z,5.00
2019-01-04T14:33:08.678Z,4.80
2019-01-04T14:35:35.246Z,5.00
2019-01-04T14:38:01.912Z,5.00
2019-01-04T14:40:28.438Z,4.90
2019-01-04T14:42:55.016Z,4.90
2019-01-04T14:45:21.624Z,4.90
2019-01-04T14:47:48.184Z,4.80
2019-01-04T14:50:14.865Z,4.90
2019-01-04T14:52:41.527Z,4.90
2019-01-04T14:55:08.075Z,4.80
2019-01-04T14:57:34.750Z,4.90
2019-01-04T15:00:02.065Z,4.70
2019-01-04T15:02:28.638Z,4.70
2019-01-04T15:04:55.161Z,4.70
2019-01-04T15:07:21.740Z,4.60
2019-01-04T15:09:49.974Z,4.60
2019-01-04T15:12:16.624Z,4.70
2019-01-04T15:14:43.357Z,4.70
2019-01-04T15:17:09.921Z,4.70
2019-01-04T15:19:36.657Z,4.60
2019-01-04T15:22:03.333Z,4.60
2019-01-04T15:24:29.916Z,4.60
2019-01-04T15:26:56.554Z,4.60
2019-01-04T15:29:23.328Z,4.50
2019-01-04T15:31:49.948Z,4.50
2019-01-04T15:34:16.521Z,4.40
2019-01-04T15:36:43.089Z,4.40
2019-01-04T15:39:09.753Z,4.40
2019-01-04T15:41:36.476Z,4.20
2019-01-04T15:44:03.168Z,4.30
2019-01-04T15:46:29.781Z,4.30
2019-01-04T15:48:56.446Z,4.20
2019-01-04T15:51:22.966Z,4.40
2019-01-04T15:53:49.742Z,4.40
2019-01-04T15:56:17.664Z,4.40
2019-01-04T15:58:44.335Z,4.60
2019-01-04T16:01:10.869Z,4.50
2019-01-04T16:03:37.465Z,4.60
2019-01-04T16:06:04.090Z,4.60
2019-01-04T16:08:30.664Z,4.50
2019-01-04T16:10:57.297Z,4.70
2019-01-04T16:13:23.972Z,4.60
2019-01-04T16:15:50.499Z,4.50
2019-01-04T16:18:17.171Z,4.70
2019-01-04T16:20:43.840Z,4.80
2019-01-04T16:23:10.613Z,5.00
2019-01-04T16:25:37.234Z,4.80
2019-01-04T16:28:03.898Z,4.80
2019-01-04T16:30:30.464Z,4.90
2019-01-04T16:32:57.086Z,4.90
2019-01-04T16:35:23.651Z,5.00
2019-01-04T16:37:50.322Z,5.00
2019-01-04T16:40:16.837Z,5.10
2019-01-04T16:42:43.308Z,5.10
2019-01-04T16:45:10.195Z,5.00
2019-01-04T16:47:36.761Z,5.10
2019-01-04T16:50:04.799Z,5.00
2019-01-04T16:52:31.369Z,5.10
2019-01-04T16:54:57.997Z,5.20
2019-01-04T16:57:24.769Z,5.20
2019-01-04T16:59:51.296Z,5.10
2019-01-04T17:02:17.969Z,5.20
2019-01-04T17:04:44.638Z,5.20
2019-01-04T17:07:11.296Z,5.10
2019-01-04T17:09:37.969Z,5.30
2019-01-04T17:12:04.492Z,5.30
2019-01-04T17:14:31.042Z,5.20
2019-01-04T17:16:57.861Z,5.30
2019-01-04T17:19:24.426Z,5.40
2019-01-04T17:21:51.060Z,5.40
2019-01-04T17:24:17.708Z,5.40
2019-01-04T17:26:44.489Z,5.60
2019-01-04T17:29:11.250Z,5.50
2019-01-04T17:31:37.816Z,5.50
2019-01-04T17:34:04.395Z,5.60
2019-01-04T17:36:31.078Z,5.60
2019-01-04T17:38:57.711Z,5.60
2019-01-04T17:41:24.368Z,5.80
2019-01-04T17:43:51.939Z,5.70
2019-01-04T17:46:18.549Z,5.70
2019-01-04T17:48:45.077Z,5.60
2019-01-04T17:51:11.605Z,5.60
2019-01-04T17:53:38.172Z,5.70
2019-01-04T17:56:06.005Z,5.90
2019-01-04T17:58:32.515Z,5.90
2019-01-04T18:00:59.029Z,5.80
2019-01-04T18:03:25.586Z,5.80
2019-01-04T18:05:53.841Z,5.80
2019-01-04T18:08:20.365Z,5.80
2019-01-04T18:10:46.935Z,5.80
2019-01-04T18:13:13.495Z,5.90
2019-01-04T18:15:40.069Z,5.90
2019-01-04T18:18:06.642Z,6.00
2019-01-04T18:20:33.279Z,6.00
2019-01-04T18:22:59.954Z,6.10
2019-01-04T18:25:26.557Z,6.10
2019-01-04T18:27:53.331Z,6.30
2019-01-04T18:30:19.959Z,6.40
2019-01-04T18:32:46.412Z,6.40
2019-01-04T18:35:13.002Z,6.30
2019-01-04T18:37:39.620Z,6.30
2019-01-04T18:40:07.874Z,6.30
2019-01-04T18:42:34.442Z,6.40
2019-01-04T18:45:01.115Z,6.40
2019-01-04T18:47:27.822Z,6.30
2019-01-04T18:49:54.384Z,6.30
2019-01-04T18:52:21.013Z,6.20
2019-01-04T18:54:47.684Z,6.10
2019-01-04T18:57:14.223Z,6.20
2019-01-04T18:59:40.782Z,6.30
2019-01-04T19:02:07.406Z,6.20
2019-01-04T19:04:37.103Z,6.20
2019-01-04T19:07:02.379Z,6.20
2019-01-04T19:09:29.006Z,6.20
2019-01-04T19:11:55.525Z,6.30
2019-01-04T19:14:22.096Z,6.50
2019-01-04T19:16:48.622Z,6.50
2019-01-04T19:19:16.347Z,6.60
2019-01-04T19:21:42.873Z,6.50
2019-01-04T19:24:09.414Z,6.40
2019-01-04T19:26:36.012Z,6.50
2019-01-04T19:29:02.584Z,6.40
2019-01-04T19:31:29.113Z,6.40
2019-01-04T19:33:55.833Z,6.40
2019-01-04T19:36:22.506Z,6.40
2019-01-04T19:38:49.531Z,6.30
2019-01-04T19:41:16.212Z,6.30
2019-01-04T19:43:42.881Z,6.40
2019-01-04T19:46:09.418Z,6.40
2019-01-04T19:48:35.972Z,6.40
2019-01-04T19:51:02.497Z,6.40
2019-01-04T19:53:29.062Z,6.30
2019-01-04T19:55:55.593Z,6.40
2019-01-04T19:58:22.161Z,6.30
2019-01-04T20:00:48.690Z,6.30
2019-01-04T20:03:15.253Z,6.40
2019-01-04T20:05:56.730Z,6.40
2019-01-04T20:08:49.218Z,6.30
2019-01-04T20:11:50.741Z,6.30
2019-01-04T20:14:49.028Z,6.30
2019-01-04T20:17:30.508Z,6.10
2019-01-04T20:20:11.174Z,6.20
2019-01-04T20:22:41.360Z,6.20
2019-01-04T20:25:26.408Z,6.20
2019-01-04T20:27:54.892Z,6.20
2019-01-04T20:30:26.148Z,6.20
2019-01-04T20:33:06.620Z,6.20
2019-01-04T20:35:35.093Z,6.30
2019-01-04T20:38:09.384Z,6.30
2019-01-04T20:40:55.385Z,6.30
2019-01-04T20:43:30.027Z,6.20
2019-01-04T20:45:58.596Z,6.30
2019-01-04T20:48:36.200Z,6.30
2019-01-04T20:51:10.708Z,6.40
2019-01-04T20:53:56.138Z,6.50
2019-01-04T20:56:30.479Z,6.40
2019-01-04T20:58:58.978Z,6.30
2019-01-04T21:01:30.713Z,6.40
2019-01-04T21:03:59.145Z,6.30
2019-01-04T21:06:45.450Z,6.30
2019-01-04T21:09:14.346Z,6.30
2019-01-04T21:11:45.644Z,6.20
2019-01-04T21:14:29.392Z,6.20
2019-01-04T21:17:16.397Z,6.30
2019-01-04T21:20:04.284Z,6.20
2019-01-04T21:22:38.761Z,6.20
2019-01-04T21:25:22.386Z,6.30
2019-01-04T21:27:51.316Z,6.30
2019-01-04T21:30:36.207Z,6.30
2019-01-04T21:33:21.163Z,6.30
2019-01-04T21:35:49.589Z,6.30
2019-01-04T21:38:34.966Z,6.30
2019-01-04T21:41:09.407Z,6.30
2019-01-04T21:43:56.182Z,6.30
2019-01-04T21:46:41.723Z,6.20
2019-01-04T21:49:27.483Z,6.30
2019-01-04T21:51:58.616Z,6.30
2019-01-04T21:54:44.106Z,6.30
2019-01-04T21:57:29.135Z,6.30
2019-01-04T22:00:03.113Z,6.30
2019-01-04T22:02:37.768Z,6.40
2019-01-04T22:05:21.457Z,6.30
2019-01-04T22:07:52.805Z,6.30
2019-01-04T22:10:22.185Z,6.30
2019-01-04T22:13:00.427Z,6.30
2019-01-04T22:15:40.965Z,6.30
2019-01-04T22:18:12.346Z,6.40
2019-01-04T22:20:43.874Z,6.40
2019-01-04T22:23:12.245Z,6.30
2019-01-04T22:25:43.601Z,6.40
2019-01-04T22:28:21.400Z,6.30
2019-01-04T22:31:06.981Z,6.40
2019-01-04T22:33:35.408Z,6.40
2019-01-04T22:36:03.873Z,6.40
2019-01-04T22:38:49.037Z,6.40
2019-01-04T22:41:17.533Z,6.50
2019-01-04T22:43:49.016Z,6.40
2019-01-04T22:46:20.395Z,6.40
2019-01-04T22:48:51.815Z,6.50
2019-01-04T22:51:20.355Z,6.50
2019-01-04T22:53:51.624Z,6.50
2019-01-04T22:56:22.755Z,6.40
2019-01-04T22:59:09.322Z,6.50
2019-01-04T23:01:37.882Z,6.40
2019-01-04T23:04:15.627Z,6.40
2019-01-04T23:06:44.293Z,6.50
2019-01-04T23:09:17.007Z,6.50
2019-01-04T23:11:54.370Z,6.50
2019-01-04T23:14:23.028Z,6.50
2019-01-04T23:17:08.083Z,6.50
2019-01-04T23:19:36.541Z,6.50
2019-01-04T23:22:14.742Z,6.50
2019-01-04T23:24:51.859Z,6.60
2019-01-04T23:27:32.272Z,6.50
2019-01-04T23:30:06.903Z,6.70
2019-01-04T23:32:43.976Z,6.60
2019-01-04T23:35:15.615Z,6.60
2019-01-04T23:37:44.121Z,6.50
2019-01-04T23:40:15.305Z,6.50
2019-01-04T23:42:49.835Z,6.60
2019-01-04T23:45:27.350Z,6.70
2019-01-04T23:47:56.049Z,6.60
2019-01-04T23:50:24.745Z,6.80
2019-01-04T23:53:05.261Z,6.70
2019-01-04T23:55:45.749Z,6.70
2019-01-04T23:58:30.919Z,6.70
